Pagina principale
METAR-TAF:

METAR-TAF

Aeroporti :

Angoulême, Francia

latitudine: 45-43-46N, longitudine: 00-13-08E, altezza: 132 m

Osservazione

Il bollettino è stato emesso 24 minuti fa, alle 23:30 UTC
Vento 5 kt da nord/nord-est
Temperature 16°C
Umidità 68%
Pressione 1025 hPa
Visibilità 10 km o più
nessuna nube inferiore a 1500 m e nessun cumulonembo

METAR: LFBU 202330Z AUTO 02005KT CAVOK 16/10 Q1025

Ora: 01:54 (23:54 UTC)

Previsione

Il bollettino è stato emesso 6 ore e 54 minuti fa, alle 17:00 UTC
Previsione valida dal 20 alle 18 UTC al 21 alle 18 UTC
Vento 5 kt da ovest/nord-ovest
Visibilità 10 km o più
nessuna nube inferiore a 1500 m e nessun cumulonembo
Evoluzione graduale
dal 20 alle 22 UTC al 20 alle 24 UTC
Vento 8 kt da nord/nord-est

TAF: LFBU 201700Z 2018/2118 30005KT CAVOK BECMG 2022/2024 02008KT

Osservazioni e previsioni meteorologiche di più di 4000 aeroporti (messaggi METAR e TAF).

Le stazioni disponibili sono rappresentate dai dischi gialli e rossi sulla carta.

Puntare il mouse per vedere il nome della stazione.

Clicca sopra per visualizzare le osservazioni e previsioni meteorologiche.

Per cambiare la mappa : fare clic sui pulsanti verdi con una croce nera per ingrandire, il pulsante verde con un trattino per diminuire, o sulla freccia verde per le mappe adiacenti.


METAR-TAF: